Time;durP1;ratioP1;P1;durP2;ratioP2;P2;SDS_P1;SDS_P2;PMS_P1;PMS_P2;Temp;Humidity;BMP_temperature;BMP_pressure;BME280_temperature;BME280_humidity;BME280_pressure;Samples;Min_cycle;Max_cycle;Signal;HPM_P1;HPM_P2
2022/11/19 00:01:42;;;;;;;32.30;12.90;;;;;;;-1.05;79.93;99754.27;103365;1294;24369;-60
2022/11/19 00:04:13;;;;;;;31.10;11.30;;;;;;;-1.04;79.80;99754.73;103375;1298;23910;-60
2022/11/19 00:06:46;;;;;;;32.60;12.00;;;;;;;-1.04;80.04;99756.94;103366;1309;24309;-59
2022/11/19 00:09:17;;;;;;;30.90;10.90;;;;;;;-1.05;79.76;99759.52;103314;1285;25320;-58
2022/11/19 00:14:42;;;;;;;32.80;10.60;;;;;;;-1.03;80.18;99768.88;103241;1285;22978;-59
2022/11/19 00:17:13;;;;;;;29.90;12.60;;;;;;;-1.02;80.09;99768.55;103420;1278;25326;-58
2022/11/19 00:19:45;;;;;;;38.60;17.30;;;;;;;-1.00;80.08;99768.46;103344;1278;22553;-60
2022/11/19 00:22:18;;;;;;;35.00;15.00;;;;;;;-1.01;79.98;99774.17;103269;1305;22545;-58
2022/11/19 00:24:50;;;;;;;32.10;12.90;;;;;;;-0.99;80.32;99778.29;103532;1280;22608;-57
2022/11/19 00:27:22;;;;;;;34.60;14.10;;;;;;;-0.99;80.04;99780.02;103364;1285;23228;-59
2022/11/19 00:29:54;;;;;;;33.50;12.50;;;;;;;-1.01;79.99;99787.33;103449;1282;24261;-60
2022/11/19 00:32:25;;;;;;;30.40;11.50;;;;;;;-1.01;79.94;99788.27;103417;1285;26489;-60
2022/11/19 00:34:56;;;;;;;30.00;10.40;;;;;;;-1.04;79.63;99788.55;103453;1279;25687;-58
2022/11/19 00:37:28;;;;;;;34.00;12.20;;;;;;;-1.06;79.69;99787.64;103441;1278;22630;-58
2022/11/19 00:40:00;;;;;;;33.30;13.40;;;;;;;-1.06;79.86;99790.61;103492;1303;25121;-59
2022/11/19 00:42:33;;;;;;;30.90;11.80;;;;;;;-1.06;79.98;99789.67;103558;1292;22603;-57
2022/11/19 00:45:05;;;;;;;34.70;13.00;;;;;;;-1.05;79.89;99796.23;103520;1285;22945;-59
2022/11/19 00:47:36;;;;;;;29.80;11.80;;;;;;;-1.05;80.00;99797.95;103409;1286;22464;-58
2022/11/19 00:50:10;;;;;;;32.60;12.30;;;;;;;-1.06;79.74;99800.55;103481;1280;24213;-59
2022/11/19 00:52:41;;;;;;;36.20;13.10;;;;;;;-1.06;79.88;99800.55;103451;1280;22467;-59
2022/11/19 00:55:13;;;;;;;33.30;11.80;;;;;;;-1.06;79.71;99798.20;103333;1286;22838;-59
2022/11/19 00:57:44;;;;;;;30.40;12.30;;;;;;;-1.07;80.01;99796.02;103447;1300;25544;-58
2022/11/19 01:00:18;;;;;;;35.40;14.80;;;;;;;-1.06;80.01;99799.99;103339;1280;26738;-60
2022/11/19 01:02:49;;;;;;;32.00;12.70;;;;;;;-1.04;80.20;99798.09;103380;1285;22476;-61
2022/11/19 01:05:21;;;;;;;30.00;11.00;;;;;;;-1.03;79.98;99797.38;103438;1280;22794;-59
2022/11/19 01:07:52;;;;;;;28.40;10.80;;;;;;;-1.04;79.92;99797.01;103427;1279;24265;-59
2022/11/19 01:10:24;;;;;;;31.00;12.30;;;;;;;-1.03;79.94;99799.02;103411;1278;22495;-59
2022/11/19 01:15:47;;;;;;;22.00;8.50;;;;;;;-1.03;80.03;99798.56;103527;1309;22455;-60
2022/11/19 01:18:20;;;;;;;29.90;11.40;;;;;;;-1.07;79.66;99801.89;103371;1278;24528;-59
2022/11/19 01:20:53;;;;;;;31.20;10.40;;;;;;;-1.08;79.95;99801.59;103516;1291;25327;-59
2022/11/19 01:23:26;;;;;;;28.60;11.50;;;;;;;-1.07;80.17;99797.89;103494;1278;22678;-59
2022/11/19 01:25:57;;;;;;;33.00;11.20;;;;;;;-1.03;80.34;99801.75;103438;1303;22546;-59
2022/11/19 01:28:29;;;;;;;31.70;12.20;;;;;;;-1.04;79.99;99796.92;103382;1289;25823;-60
2022/11/19 01:31:06;;;;;;;27.70;10.80;;;;;;;-1.04;80.15;99792.39;103395;1278;24326;-59
2022/11/19 01:33:38;;;;;;;32.40;12.30;;;;;;;-1.05;79.91;99793.04;103518;1304;24331;-58
2022/11/19 01:36:15;;;;;;;29.70;11.60;;;;;;;-1.06;80.11;99793.98;103454;1279;25184;-58
2022/11/19 01:38:49;;;;;;;28.20;11.00;;;;;;;-1.07;79.95;99793.36;103294;1278;22577;-59
2022/11/19 01:41:22;;;;;;;25.90;10.10;;;;;;;-1.06;80.39;99803.69;103273;1304;24260;-59
2022/11/19 01:43:58;;;;;;;29.30;10.90;;;;;;;-1.05;80.08;99803.19;103439;1278;22870;-59
2022/11/19 01:46:31;;;;;;;30.30;11.30;;;;;;;-1.03;80.21;99806.15;103044;1282;22467;-59
2022/11/19 01:49:04;;;;;;;30.50;10.80;;;;;;;-1.03;80.19;99807.77;103352;1301;22489;-59
2022/11/19 01:51:38;;;;;;;26.70;10.30;;;;;;;-1.04;80.10;99810.61;103307;1303;25360;-59
2022/11/19 01:54:20;;;;;;;26.70;10.10;;;;;;;-1.01;80.35;99807.91;103370;1280;22595;-60
2022/11/19 01:56:51;;;;;;;29.30;10.80;;;;;;;-1.03;79.76;99811.31;103346;1283;22556;-58
2022/11/19 01:59:25;;;;;;;27.40;10.40;;;;;;;-1.04;80.05;99817.19;103380;1285;22745;-59
2022/11/19 02:01:57;;;;;;;24.50;9.60;;;;;;;-1.04;80.04;99819.69;103483;1282;25421;-59
2022/11/19 02:04:31;;;;;;;27.60;8.60;;;;;;;-1.03;79.55;99818.36;103402;1282;24433;-59
2022/11/19 02:07:04;;;;;;;25.30;8.90;;;;;;;-1.04;79.60;99814.05;103374;1278;22467;-59
2022/11/19 02:09:36;;;;;;;27.50;9.80;;;;;;;-1.03;79.52;99810.45;103443;1304;22521;-58
2022/11/19 02:12:26;;;;;;;25.30;8.80;;;;;;;-1.04;79.36;99813.13;103484;1279;22523;-60
2022/11/19 02:15:25;;;;;;;26.50;9.40;;;;;;;-1.05;79.42;99814.70;103390;1282;22475;-58
2022/11/19 02:18:26;;;;;;;23.10;8.60;;;;;;;-1.05;79.31;99826.30;103375;1282;22464;-59
2022/11/19 02:21:25;;;;;;;23.70;8.20;;;;;;;-1.08;79.28;99831.64;102808;1309;26776;-58
2022/11/19 02:24:39;;;;;;;25.80;9.20;;;;;;;-1.09;79.46;99833.46;102967;1283;24057;-58
2022/11/19 02:27:55;;;;;;;24.00;9.60;;;;;;;-1.09;79.58;99841.75;103064;1286;24696;-58
2022/11/19 02:30:28;;;;;;;24.90;9.00;;;;;;;-1.07;79.47;99840.31;102834;1283;22554;-58
2022/11/19 02:33:09;;;;;;;28.40;9.60;;;;;;;-1.08;79.37;99844.24;103037;1285;22515;-59
2022/11/19 02:35:49;;;;;;;23.20;7.80;;;;;;;-1.07;79.50;99845.56;102746;1309;26569;-59
2022/11/19 02:38:28;;;;;;;25.40;8.80;;;;;;;-1.07;79.32;99851.20;102918;1295;24272;-58
2022/11/19 02:41:32;;;;;;;24.40;8.80;;;;;;;-1.06;79.48;99852.44;102852;1285;25806;-58
2022/11/19 02:46:50;;;;;;;28.20;9.90;;;;;;;-1.06;79.58;99854.95;102817;1284;22485;-60
2022/11/19 02:49:26;;;;;;;27.90;10.10;;;;;;;-1.06;79.70;99853.38;102961;1285;22521;-58
2022/11/19 02:51:58;;;;;;;25.70;9.90;;;;;;;-1.05;79.73;99854.70;102998;1301;22490;-60
2022/11/19 02:54:30;;;;;;;28.80;10.40;;;;;;;-1.04;79.76;99856.02;103187;1288;25367;-59
2022/11/19 02:57:01;;;;;;;25.70;9.40;;;;;;;-1.05;79.58;99860.19;103003;1280;22676;-58
2022/11/19 03:05:26;;;;;;;29.90;10.50;;;;;;;-1.23;79.54;99858.05;103236;1279;23099;-59
2022/11/19 03:07:58;;;;;;;27.20;10.70;;;;;;;-1.32;79.58;99858.38;103527;1278;25620;-59
2022/11/19 03:10:36;;;;;;;26.30;9.20;;;;;;;-1.38;79.67;99864.39;103499;1279;25461;-59
2022/11/19 03:19:06;;;;;;;28.70;10.40;;;;;;;-1.63;79.47;99866.61;103430;1303;22490;-59
2022/11/19 03:21:44;;;;;;;28.80;10.00;;;;;;;-1.67;79.42;99867.58;103335;1303;26479;-57
2022/11/19 03:24:19;;;;;;;26.20;10.10;;;;;;;-1.68;79.26;99865.94;103528;1272;23000;-59
2022/11/19 03:26:56;;;;;;;31.10;10.10;;;;;;;-1.70;78.90;99868.63;103411;1278;25202;-58
2022/11/19 03:29:29;;;;;;;24.20;7.70;;;;;;;-1.79;78.52;99870.44;103467;1279;24466;-60
2022/11/19 03:32:07;;;;;;;24.90;9.30;;;;;;;-1.88;78.72;99866.90;103254;1301;24317;-59
2022/11/19 03:34:44;;;;;;;27.50;9.00;;;;;;;-1.90;79.13;99865.15;103398;1279;24464;-59
2022/11/19 03:37:19;;;;;;;25.00;8.30;;;;;;;-1.93;79.04;99872.52;103379;1281;25326;-59
2022/11/19 03:39:56;;;;;;;23.40;8.40;;;;;;;-1.95;78.90;99876.11;103480;1303;25491;-59
2022/11/19 03:42:29;;;;;;;21.80;7.10;;;;;;;-1.95;78.83;99873.48;103609;1279;24321;-60
2022/11/19 03:45:09;;;;;;;26.90;8.30;;;;;;;-1.94;79.39;99873.99;103345;1279;22704;-60
2022/11/19 03:47:41;;;;;;;23.10;8.00;;;;;;;-1.93;79.35;99876.35;103473;1297;24318;-58
2022/11/19 03:50:23;;;;;;;22.90;9.60;;;;;;;-1.90;79.60;99881.00;103414;1279;22489;-59
2022/11/19 03:52:55;;;;;;;24.30;8.10;;;;;;;-1.86;79.51;99886.91;103354;1279;22467;-59
2022/11/19 03:55:33;;;;;;;23.50;8.70;;;;;;;-1.84;79.69;99887.11;103478;1279;25475;-58
2022/11/19 03:58:07;;;;;;;24.30;8.30;;;;;;;-1.84;79.85;99890.56;103718;1298;24415;-60
2022/11/19 04:00:39;;;;;;;21.40;8.10;;;;;;;-1.85;79.94;99884.55;103483;1303;22472;-59
2022/11/19 04:03:12;;;;;;;27.20;9.10;;;;;;;-1.85;79.83;99886.67;103431;1284;22780;-58
2022/11/19 04:05:43;;;;;;;22.00;7.60;;;;;;;-1.88;79.46;99890.43;103357;1303;24341;-59
2022/11/19 04:08:15;;;;;;;29.00;10.10;;;;;;;-1.98;78.90;99893.81;103470;1303;24289;-59
2022/11/19 04:10:46;;;;;;;28.00;8.80;;;;;;;-2.05;78.99;99896.98;103338;1303;22465;-57
2022/11/19 04:13:18;;;;;;;31.10;9.20;;;;;;;-2.07;79.21;99894.81;103543;1278;24123;-59
2022/11/19 04:15:50;;;;;;;27.80;10.00;;;;;;;-2.11;79.08;99898.75;103519;1292;25468;-58
2022/11/19 04:18:21;;;;;;;24.50;9.20;;;;;;;-2.16;79.16;99900.90;103502;1279;22483;-59
2022/11/19 04:20:52;;;;;;;22.70;7.80;;;;;;;-2.18;79.11;99907.80;103283;1279;22509;-59
2022/11/19 04:23:24;;;;;;;27.10;9.30;;;;;;;-2.22;78.97;99908.68;103503;1282;22593;-60
2022/11/19 04:25:56;;;;;;;25.00;8.20;;;;;;;-2.26;79.14;99915.34;103411;1278;22533;-60
2022/11/19 04:28:27;;;;;;;25.80;9.50;;;;;;;-2.32;78.85;99914.91;103514;1295;22542;-59
2022/11/19 04:30:59;;;;;;;31.00;10.00;;;;;;;-2.34;79.09;99919.23;103450;1303;24231;-59
2022/11/19 04:33:31;;;;;;;26.30;8.80;;;;;;;-2.36;79.25;99917.36;103577;1278;25421;-59
2022/11/19 04:36:03;;;;;;;23.10;8.30;;;;;;;-2.39;78.84;99916.61;103480;1279;23726;-59
2022/11/19 04:38:34;;;;;;;25.20;8.10;;;;;;;-2.47;78.62;99922.11;103385;1271;25391;-60
2022/11/19 04:41:06;;;;;;;24.60;8.60;;;;;;;-2.54;78.69;99926.67;103414;1300;22483;-58
2022/11/19 04:43:38;;;;;;;24.50;9.00;;;;;;;-2.62;78.49;99931.55;103494;1278;25549;-59
2022/11/19 04:46:10;;;;;;;25.10;7.80;;;;;;;-2.70;78.65;99935.13;103598;1296;22592;-59
2022/11/19 04:48:41;;;;;;;28.80;9.00;;;;;;;-2.74;79.43;99934.89;103510;1303;25487;-57
2022/11/19 04:51:13;;;;;;;22.30;8.00;;;;;;;-2.73;79.25;99933.31;103424;1279;22487;-59
2022/11/19 04:53:45;;;;;;;27.30;9.20;;;;;;;-2.75;79.00;99936.45;103471;1278;23200;-60
2022/11/19 04:56:16;;;;;;;23.30;8.50;;;;;;;-2.79;79.16;99935.14;103365;1280;25651;-57
2022/11/19 04:58:48;;;;;;;22.90;8.00;;;;;;;-2.81;78.91;99939.13;103455;1290;25564;-59
2022/11/19 05:01:20;;;;;;;27.90;8.30;;;;;;;-2.86;79.25;99939.39;103344;1271;22675;-58
2022/11/19 05:03:54;;;;;;;21.90;8.70;;;;;;;-2.89;79.00;99934.72;103417;1303;22773;-58
2022/11/19 05:06:26;;;;;;;24.90;9.40;;;;;;;-2.93;79.20;99933.95;103665;1268;22599;-58
2022/11/19 05:08:58;;;;;;;24.90;8.20;;;;;;;-2.94;79.48;99933.58;103303;1303;24291;-59
2022/11/19 05:11:29;;;;;;;27.90;8.20;;;;;;;-2.94;79.34;99932.79;103423;1289;22609;-59
2022/11/19 05:14:01;;;;;;;24.30;8.80;;;;;;;-2.95;79.54;99931.77;103457;1303;22589;-59
2022/11/19 05:16:33;;;;;;;25.60;10.10;;;;;;;-2.94;79.63;99932.71;103459;1296;22593;-59
2022/11/19 05:19:04;;;;;;;25.60;8.60;;;;;;;-2.95;79.73;99931.61;103479;1303;24355;-57
2022/11/19 05:21:38;;;;;;;26.70;9.10;;;;;;;-2.97;79.53;99935.29;103360;1294;24314;-58
2022/11/19 05:24:11;;;;;;;29.30;11.30;;;;;;;-3.00;79.30;99938.34;103487;1278;22549;-61
2022/11/19 05:26:42;;;;;;;33.80;12.70;;;;;;;-3.05;78.90;99940.23;103685;1271;22840;-58
2022/11/19 05:29:15;;;;;;;33.40;12.30;;;;;;;-3.13;78.79;99942.52;103615;1297;24231;-59
2022/11/19 05:31:47;;;;;;;36.30;11.30;;;;;;;-3.19;78.84;99939.89;103383;1279;22796;-57
2022/11/19 05:34:19;;;;;;;29.30;10.90;;;;;;;-3.25;79.00;99938.41;103383;1278;24660;-58
2022/11/19 05:36:50;;;;;;;33.60;11.20;;;;;;;-3.30;79.08;99938.42;103649;1296;24052;-59
2022/11/19 05:39:22;;;;;;;28.90;9.90;;;;;;;-3.35;78.83;99938.67;103829;1272;22562;-60
2022/11/19 05:41:53;;;;;;;28.20;10.90;;;;;;;-3.43;78.78;99946.41;103448;1278;22827;-58
2022/11/19 05:44:25;;;;;;;31.60;10.60;;;;;;;-3.48;79.01;99951.86;103475;1278;22699;-59
2022/11/19 05:46:58;;;;;;;27.40;9.80;;;;;;;-3.52;79.12;99955.77;103312;1278;22536;-59
2022/11/19 05:49:30;;;;;;;27.60;10.10;;;;;;;-3.54;79.34;99959.19;103378;1279;23046;-58
2022/11/19 05:52:02;;;;;;;30.40;10.00;;;;;;;-3.60;79.43;99963.41;103349;1303;26675;-58
2022/11/19 05:54:34;;;;;;;30.80;10.20;;;;;;;-3.65;79.52;99971.91;103523;1287;24377;-58
2022/11/19 05:57:05;;;;;;;32.20;10.50;;;;;;;-3.69;79.45;99973.55;103361;1272;22526;-59
2022/11/19 05:59:37;;;;;;;28.60;10.80;;;;;;;-3.75;79.45;99975.80;103490;1279;22667;-58
2022/11/19 06:02:11;;;;;;;31.20;11.60;;;;;;;-3.78;79.38;99977.13;103517;1303;22820;-56
2022/11/19 06:04:42;;;;;;;28.80;10.80;;;;;;;-3.81;79.75;99979.63;103578;1279;22699;-58
2022/11/19 06:07:14;;;;;;;31.30;11.50;;;;;;;-3.81;79.97;99985.70;103537;1281;25487;-58
2022/11/19 06:09:47;;;;;;;27.70;9.90;;;;;;;-3.81;79.66;99992.48;103390;1297;22506;-58
2022/11/19 06:12:18;;;;;;;30.00;11.30;;;;;;;-3.84;79.39;100001.05;103330;1272;25575;-57
2022/11/19 06:14:51;;;;;;;36.00;12.10;;;;;;;-3.86;79.62;100002.83;103327;1278;22634;-60
2022/11/19 06:17:23;;;;;;;32.20;11.10;;;;;;;-3.86;79.65;100008.68;103446;1272;25669;-59
2022/11/19 06:19:55;;;;;;;29.00;10.70;;;;;;;-3.86;79.91;100015.30;103486;1279;22669;-58
2022/11/19 06:22:26;;;;;;;27.80;10.60;;;;;;;-3.87;79.92;100017.63;103366;1271;22525;-59
2022/11/19 06:24:58;;;;;;;32.90;11.90;;;;;;;-3.86;79.80;100020.84;103593;1303;23811;-58
2022/11/19 06:27:30;;;;;;;32.80;12.60;;;;;;;-3.86;79.82;100018.51;103651;1279;24520;-58
2022/11/19 06:30:01;;;;;;;34.40;11.40;;;;;;;-3.83;80.14;100022.24;103548;1279;25215;-59
2022/11/19 06:32:32;;;;;;;31.60;11.70;;;;;;;-3.83;80.31;100019.98;103428;1279;22527;-58
2022/11/19 06:35:04;;;;;;;29.40;10.90;;;;;;;-3.82;80.29;100023.64;103262;1271;23188;-57
2022/11/19 06:37:36;;;;;;;30.60;11.40;;;;;;;-3.82;80.00;100018.66;103460;1279;25267;-58
2022/11/19 06:40:10;;;;;;;36.00;12.60;;;;;;;-3.83;79.92;100021.55;103336;1279;23007;-62
2022/11/19 06:42:42;;;;;;;33.00;12.60;;;;;;;-3.84;79.91;100014.37;103499;1303;22591;-58
2022/11/19 06:45:15;;;;;;;34.20;13.50;;;;;;;-3.84;79.93;100018.67;103427;1271;23299;-59
2022/11/19 06:47:50;;;;;;;41.10;12.40;;;;;;;-3.82;80.19;100014.30;103343;1279;26119;-57
2022/11/19 06:50:22;;;;;;;42.90;16.60;;;;;;;-3.80;80.12;100020.06;103649;1279;25649;-59
2022/11/19 06:52:54;;;;;;;74.00;30.70;;;;;;;-3.80;79.99;100024.50;103405;1279;25654;-59
2022/11/19 06:55:26;;;;;;;86.20;32.40;;;;;;;-3.81;80.01;100028.63;103421;1279;23112;-59
2022/11/19 06:58:02;;;;;;;88.10;32.20;;;;;;;-3.81;80.25;100034.16;103466;1303;22506;-58
2022/11/19 07:00:35;;;;;;;95.70;36.60;;;;;;;-3.80;80.30;100029.48;103394;1287;22468;-59
2022/11/19 07:03:07;;;;;;;103.90;38.00;;;;;;;-3.79;80.42;100034.17;103634;1279;22675;-57
2022/11/19 07:05:39;;;;;;;87.70;38.20;;;;;;;-3.77;80.65;100036.13;103434;1278;25470;-58
2022/11/19 07:08:12;;;;;;;94.80;41.10;;;;;;;-3.77;80.73;100041.43;103386;1279;23083;-58
2022/11/19 07:10:44;;;;;;;94.70;40.70;;;;;;;-3.77;80.66;100044.86;103519;1303;25603;-58
2022/11/19 07:13:16;;;;;;;79.10;39.30;;;;;;;-3.76;80.55;100046.09;103400;1279;22565;-59
2022/11/19 07:15:48;;;;;;;89.80;36.90;;;;;;;-3.78;80.45;100048.60;103347;1272;22508;-59
2022/11/19 07:18:21;;;;;;;82.00;36.10;;;;;;;-3.79;80.78;100051.63;103663;1265;22580;-58
2022/11/19 07:20:54;;;;;;;78.60;34.50;;;;;;;-3.78;80.99;100046.18;106617;1279;22513;-59
2022/11/19 07:23:26;;;;;;;81.70;38.60;;;;;;;-3.75;81.12;100050.77;103468;1279;24225;-58
2022/11/19 07:26:04;;;;;;;85.60;40.00;;;;;;;-3.77;80.69;100055.28;103484;1279;25635;-64
2022/11/19 07:28:38;;;;;;;99.70;42.90;;;;;;;-3.83;80.53;100061.28;103594;1279;25569;-59
2022/11/19 07:31:11;;;;;;;96.40;43.60;;;;;;;-3.88;80.56;100063.06;103475;1279;23064;-58
2022/11/19 07:33:43;;;;;;;111.20;49.10;;;;;;;-3.91;80.83;100063.91;103312;1271;26443;-58
2022/11/19 07:36:15;;;;;;;112.30;47.50;;;;;;;-3.95;81.07;100063.20;103405;1277;25490;-58
2022/11/19 07:38:49;;;;;;;132.50;56.40;;;;;;;-3.96;81.22;100064.52;103467;1271;22631;-57
2022/11/19 07:44:13;;;;;;;95.10;42.70;;;;;;;-3.94;81.75;100056.81;102994;1285;22552;-58
2022/11/19 07:46:46;;;;;;;85.50;38.30;;;;;;;-3.95;81.90;100055.48;103030;1277;23079;-65
2022/11/19 07:49:18;;;;;;;87.10;38.50;;;;;;;-3.93;82.11;100057.20;102987;1278;22613;-59
2022/11/19 07:51:52;;;;;;;78.50;32.70;;;;;;;-3.89;82.25;100061.11;103078;1309;24421;-60
2022/11/19 07:54:25;;;;;;;67.30;27.10;;;;;;;-3.84;82.53;100061.91;103059;1294;24775;-61
2022/11/19 07:56:58;;;;;;;54.60;22.70;;;;;;;-3.80;82.52;100056.61;103277;1285;25595;-61
2022/11/19 07:59:32;;;;;;;64.00;26.30;;;;;;;-3.78;82.50;100061.30;103344;1284;22657;-60
2022/11/19 08:02:04;;;;;;;62.90;27.20;;;;;;;-3.75;82.72;100060.44;102989;1277;23967;-57
2022/11/19 08:04:38;;;;;;;60.90;26.70;;;;;;;-3.72;82.89;100060.45;103186;1277;22556;-61
2022/11/19 08:07:10;;;;;;;61.00;25.50;;;;;;;-3.69;82.99;100064.83;103047;1285;25499;-61
2022/11/19 08:09:42;;;;;;;64.90;24.80;;;;;;;-3.67;83.07;100063.42;102998;1309;22622;-60
2022/11/19 08:12:13;;;;;;;123.00;49.40;;;;;;;-3.64;83.19;100061.55;102816;1284;22503;-60
2022/11/19 08:14:46;;;;;;;117.00;46.90;;;;;;;-3.61;83.23;100058.52;102875;1278;23172;-63
2022/11/19 08:20:10;;;;;;;66.10;28.00;;;;;;;-3.52;83.50;100057.66;102872;1285;22607;-61
2022/11/19 08:22:42;;;;;;;56.60;23.40;;;;;;;-3.48;83.37;100058.69;103218;1298;27682;-63
2022/11/19 08:25:14;;;;;;;50.40;20.00;;;;;;;-3.44;83.42;100057.05;103439;1279;26675;-57
2022/11/19 08:27:45;;;;;;;45.30;18.30;;;;;;;-3.41;83.49;100051.98;103393;1303;22722;-59
2022/11/19 08:30:18;;;;;;;43.20;17.40;;;;;;;-3.37;83.39;100052.21;103349;1279;25542;-64
2022/11/19 08:32:49;;;;;;;45.90;17.60;;;;;;;-3.34;83.18;100054.00;103335;1303;22654;-60
2022/11/19 08:35:23;;;;;;;50.70;19.70;;;;;;;-3.28;83.22;100049.25;103368;1279;22632;-60
2022/11/19 08:37:54;;;;;;;51.00;18.00;;;;;;;-3.23;83.35;100049.64;103360;1303;24806;-58
2022/11/19 08:40:27;;;;;;;48.40;18.40;;;;;;;-3.18;83.43;100051.90;103407;1279;25479;-53
2022/11/19 08:43:01;;;;;;;38.70;15.10;;;;;;;-3.13;83.43;100054.47;103396;1279;23157;-58
2022/11/19 08:45:35;;;;;;;40.30;16.00;;;;;;;-3.10;83.40;100057.67;103380;1279;22528;-56
2022/11/19 08:48:09;;;;;;;38.60;15.00;;;;;;;-3.06;83.36;100059.06;103170;1279;22608;-59
2022/11/19 08:50:41;;;;;;;35.20;13.30;;;;;;;-3.01;83.44;100060.70;103287;1279;22628;-60
2022/11/19 08:53:13;;;;;;;36.50;13.30;;;;;;;-2.98;83.13;100061.08;103224;1279;26777;-65
2022/11/19 08:55:50;;;;;;;39.90;14.40;;;;;;;-2.94;83.28;100057.71;103193;1278;22561;-61
2022/11/19 08:58:23;;;;;;;30.60;12.60;;;;;;;-2.90;83.02;100060.76;103279;1278;22596;-58
2022/11/19 09:00:54;;;;;;;35.10;13.60;;;;;;;-2.86;83.12;100065.05;103240;1295;24321;-55
2022/11/19 09:03:26;;;;;;;32.90;13.30;;;;;;;-2.81;83.06;100066.59;103356;1289;24016;-59
2022/11/19 09:06:01;;;;;;;35.50;11.90;;;;;;;-2.76;82.88;100073.54;103315;1282;22779;-63
2022/11/19 09:08:33;;;;;;;36.10;13.10;;;;;;;-2.74;82.89;100075.48;103341;1271;22650;-55
2022/11/19 09:11:10;;;;;;;41.50;15.40;;;;;;;-2.72;82.57;100076.10;103279;1279;22628;-56
2022/11/19 09:13:42;;;;;;;34.80;13.20;;;;;;;-2.69;82.57;100074.38;103262;1303;23639;-58
2022/11/19 09:16:14;;;;;;;38.40;15.00;;;;;;;-2.64;82.68;100079.36;103225;1279;24501;-59
2022/11/19 09:18:46;;;;;;;37.40;14.50;;;;;;;-2.59;82.81;100081.77;104825;1285;22600;-56
2022/11/19 09:21:18;;;;;;;36.60;14.20;;;;;;;-2.56;82.89;100082.23;103356;1303;22946;-56
2022/11/19 09:23:51;;;;;;;40.60;14.20;;;;;;;-2.50;83.11;100083.85;103242;1279;25537;-58
2022/11/19 09:26:24;;;;;;;34.50;13.60;;;;;;;-2.45;82.77;100085.08;103366;1272;22612;-57
2022/11/19 09:28:56;;;;;;;37.40;15.50;;;;;;;-2.41;82.45;100088.12;106462;1303;25332;-55
2022/11/19 09:31:27;;;;;;;37.90;14.30;;;;;;;-2.38;82.37;100083.42;103404;1278;25563;-54
2022/11/19 09:33:59;;;;;;;33.60;13.30;;;;;;;-2.36;82.07;100084.75;103594;1303;26953;-58
2022/11/19 09:36:31;;;;;;;35.00;14.40;;;;;;;-2.34;81.94;100079.74;103495;1303;25470;-55
2022/11/19 09:39:02;;;;;;;35.40;14.70;;;;;;;-2.30;82.37;100075.05;103549;1271;25597;-57
2022/11/19 09:41:44;;;;;;;41.90;16.10;;;;;;;-2.25;82.44;100072.59;103647;1271;23719;-55
2022/11/19 09:44:33;;;;;;;40.10;16.60;;;;;;;-2.20;82.37;100070.63;103491;1271;22481;-57
2022/11/19 09:47:17;;;;;;;39.20;16.20;;;;;;;-2.15;82.45;100065.60;103482;1272;22516;-56
2022/11/19 09:49:58;;;;;;;38.70;15.10;;;;;;;-2.10;82.57;100068.07;103386;1295;25427;-54
2022/11/19 09:52:33;;;;;;;32.10;13.90;;;;;;;-2.06;82.32;100067.89;103252;1279;22573;-58
2022/11/19 09:55:05;;;;;;;37.60;15.40;;;;;;;-2.02;82.36;100069.14;103385;1296;22506;-55
2022/11/19 09:57:44;;;;;;;39.50;16.30;;;;;;;-2.00;82.22;100066.71;103324;1302;25615;-60
2022/11/19 10:00:21;;;;;;;37.70;16.50;;;;;;;-1.96;82.03;100068.00;103370;1279;387745;-55
2022/11/19 10:02:53;;;;;;;35.10;13.30;;;;;;;-1.92;81.70;100064.15;103395;1279;25439;-60
2022/11/19 10:05:32;;;;;;;35.50;14.50;;;;;;;-1.89;81.68;100063.58;103436;1275;24422;-58
2022/11/19 10:08:17;;;;;;;37.40;14.00;;;;;;;-1.86;81.47;100064.12;103410;1279;26634;-57
2022/11/19 10:11:00;;;;;;;36.30;14.10;;;;;;;-1.82;81.52;100062.62;103385;1271;22641;-55
2022/11/19 10:13:48;;;;;;;33.50;12.50;;;;;;;-1.79;81.37;100067.66;103363;1289;22473;-54
2022/11/19 10:16:33;;;;;;;39.40;13.90;;;;;;;-1.75;81.21;100065.86;103438;1282;24444;-57
2022/11/19 10:19:13;;;;;;;40.00;15.10;;;;;;;-1.71;81.31;100065.45;103511;1271;22550;-56
2022/11/19 10:21:58;;;;;;;35.50;14.70;;;;;;;-1.64;81.56;100065.32;103446;1303;24231;-56
2022/11/19 10:24:41;;;;;;;47.00;17.40;;;;;;;-1.57;81.65;100062.07;103614;1272;24208;-57
2022/11/19 10:27:26;;;;;;;43.10;18.00;;;;;;;-1.50;81.75;100058.02;103594;1295;24231;-56
2022/11/19 10:30:02;;;;;;;36.80;15.10;;;;;;;-1.40;81.60;100060.14;103401;1271;22728;-59
2022/11/19 10:32:39;;;;;;;44.30;16.90;;;;;;;-1.35;81.38;100060.02;103538;1287;22474;-57
2022/11/19 10:35:19;;;;;;;38.20;17.00;;;;;;;-1.33;81.19;100056.10;103406;1279;23977;-60
2022/11/19 10:37:56;;;;;;;42.40;16.90;;;;;;;-1.29;81.18;100050.42;103447;1288;22700;-59
2022/11/19 10:40:34;;;;;;;42.50;17.30;;;;;;;-1.24;81.19;100052.90;103374;1279;22498;-53
2022/11/19 10:43:15;;;;;;;37.30;15.00;;;;;;;-1.17;81.00;100051.59;103444;1272;22470;-58
2022/11/19 10:45:48;;;;;;;38.00;15.50;;;;;;;-1.12;81.00;100049.27;103383;1303;25549;-59
2022/11/19 10:48:24;;;;;;;34.30;13.40;;;;;;;-1.05;81.00;100050.39;103396;1279;24235;-58
2022/11/19 10:50:59;;;;;;;36.50;15.30;;;;;;;-0.97;80.46;100052.34;103348;1279;22545;-57
2022/11/19 10:53:35;;;;;;;34.70;13.90;;;;;;;-0.90;80.26;100050.09;103394;1289;22474;-56
2022/11/19 10:56:12;;;;;;;35.60;15.10;;;;;;;-0.83;80.02;100044.61;103379;1271;22568;-57
2022/11/19 10:58:51;;;;;;;41.40;17.50;;;;;;;-0.77;79.92;100041.58;103267;1279;22930;-57
2022/11/19 11:01:29;;;;;;;38.10;15.80;;;;;;;-0.70;80.31;100037.84;103368;1279;24309;-59
2022/11/19 11:04:08;;;;;;;43.40;17.30;;;;;;;-0.61;80.65;100035.84;103395;1281;24235;-58
2022/11/19 11:06:54;;;;;;;39.90;15.10;;;;;;;-0.51;80.74;100038.79;103370;1289;25273;-58
2022/11/19 11:09:35;;;;;;;38.10;14.60;;;;;;;-0.42;80.21;100041.65;103301;1279;22509;-60
2022/11/19 11:15:15;;;;;;;37.40;13.20;;;;;;;-0.37;78.65;100042.61;102805;1285;24062;-57
2022/11/19 11:17:48;;;;;;;32.30;13.00;;;;;;;-0.34;79.56;100040.92;102875;1285;22572;-54
2022/11/19 11:20:28;;;;;;;36.60;13.70;;;;;;;-0.28;79.16;100040.31;102831;1280;23028;-57
2022/11/19 11:23:09;;;;;;;36.90;14.50;;;;;;;-0.25;79.06;100037.69;102970;1284;23111;-58
2022/11/19 11:25:41;;;;;;;34.70;13.30;;;;;;;-0.21;79.29;100030.65;102928;1277;25430;-59
2022/11/19 11:28:16;;;;;;;32.20;13.00;;;;;;;-0.16;79.17;100027.63;102904;1286;22494;-56
2022/11/19 11:30:55;;;;;;;32.50;13.60;;;;;;;-0.13;78.40;100027.11;102944;1308;22639;-64
2022/11/19 11:33:36;;;;;;;30.90;11.60;;;;;;;-0.12;77.90;100022.39;102926;1301;24873;-59
2022/11/19 11:36:11;;;;;;;37.00;11.90;;;;;;;-0.12;77.41;100027.02;102956;1309;25308;-59
2022/11/19 11:38:48;;;;;;;35.10;14.80;;;;;;;-0.14;77.50;100024.52;102894;1285;22544;-59
2022/11/19 11:41:22;;;;;;;24.90;8.70;;;;;;;-0.15;77.27;100027.05;102791;1277;24877;-59
2022/11/19 11:44:10;;;;;;;24.70;8.30;;;;;;;-0.18;76.40;100026.23;105605;1291;22565;-57
2022/11/19 11:46:48;;;;;;;19.20;5.60;;;;;;;-0.24;75.16;100031.33;102817;1285;22635;-59
2022/11/19 11:49:29;;;;;;;18.80;6.00;;;;;;;-0.31;74.79;100030.86;103416;1278;25369;-58
2022/11/19 11:52:18;;;;;;;18.90;5.20;;;;;;;-0.37;74.95;100028.03;102908;1309;23899;-56
2022/11/19 11:54:59;;;;;;;15.60;4.30;;;;;;;-0.42;74.82;100021.60;103532;1279;22480;-56
2022/11/19 11:57:34;;;;;;;15.50;3.90;;;;;;;-0.46;74.82;100021.87;103898;1279;22476;-58
2022/11/19 12:00:35;;;;;;;17.20;4.60;;;;;;;-0.48;74.77;100024.25;103334;1278;25136;-58
2022/11/19 12:03:12;;;;;;;14.60;4.50;;;;;;;-0.48;74.73;100024.56;103448;1279;23275;-58
2022/11/19 12:05:57;;;;;;;17.70;5.20;;;;;;;-0.50;74.55;100021.38;103505;1303;25197;-60
2022/11/19 12:08:44;;;;;;;16.10;4.70;;;;;;;-0.50;74.82;100020.99;103454;1279;25444;-60
2022/11/19 12:11:23;;;;;;;19.40;5.50;;;;;;;-0.50;74.71;100019.42;103453;1279;23767;-57